Time;durP1;ratioP1;P1;durP2;ratioP2;P2;SDS_P1;SDS_P2;PMS_P1;PMS_P2;Temp;Humidity;BMP_temperature;BMP_pressure;BME280_temperature;BME280_humidity;BME280_pressure;Samples;Min_cycle;Max_cycle;Signal;HPM_P1;HPM_P2
2021/03/30 00:00:16;;;;;;;8.68;2.83;;;23.10;62.10;;;;;;5095225;28;20020;-69
2021/03/30 00:02:44;;;;;;;13.82;2.50;;;23.20;61.80;;;;;;5094274;28;20020;-66
2021/03/30 00:05:12;;;;;;;9.35;2.88;;;23.40;61.30;;;;;;5094796;28;20154;-67
2021/03/30 00:07:40;;;;;;;6.40;1.65;;;23.50;60.90;;;;;;5094515;28;20089;-68
2021/03/30 00:10:11;;;;;;;9.68;2.20;;;23.60;60.60;;;;;;5096039;28;20482;-68
2021/03/30 00:12:39;;;;;;;10.35;2.40;;;23.80;61.30;;;;;;5096644;28;20047;-67
2021/03/30 00:15:08;;;;;;;12.55;2.97;;;23.80;61.40;;;;;;5098847;28;20034;-70
2021/03/30 00:17:36;;;;;;;10.23;2.08;;;24.10;59.60;;;;;;5098429;27;20024;-68
2021/03/30 00:20:15;;;;;;;7.88;2.17;;;24.40;59.40;;;;;;5098051;27;20099;-67
2021/03/30 00:22:43;;;;;;;15.02;2.15;;;24.70;59.70;;;;;;5100709;27;20119;-68
2021/03/30 00:25:13;;;;;;;5.00;1.60;;;24.70;56.50;;;;;;5097895;28;20392;-69
2021/03/30 00:27:41;;;;;;;9.52;2.35;;;24.80;57.50;;;;;;5098135;28;20481;-68
2021/03/30 00:30:10;;;;;;;9.50;2.05;;;24.70;57.10;;;;;;5098178;28;20048;-69
2021/03/30 00:32:41;;;;;;;11.45;2.13;;;24.50;57.00;;;;;;5098379;27;20050;-68
2021/03/30 00:35:09;;;;;;;5.72;1.70;;;24.30;57.50;;;;;;5097481;28;20035;-68
2021/03/30 00:37:37;;;;;;;10.82;2.67;;;24.30;57.70;;;;;;5099416;28;20069;-69
2021/03/30 00:40:10;;;;;;;6.90;1.67;;;24.70;59.20;;;;;;5102127;28;20359;-68
2021/03/30 00:42:42;;;;;;;5.22;1.65;;;25.30;53.90;;;;;;5098969;27;20019;-70
2021/03/30 00:45:12;;;;;;;7.80;1.92;;;25.60;53.50;;;;;;5097459;28;20056;-71
2021/03/30 00:47:46;;;;;;;6.22;2.40;;;25.80;52.90;;;;;;5099549;28;20074;-67
2021/03/30 00:50:20;;;;;;;7.43;1.90;;;25.90;51.60;;;;;;5099236;27;20117;-70
2021/03/30 00:52:48;;;;;;;7.53;2.10;;;25.80;54.40;;;;;;5101805;28;20055;-70
2021/03/30 00:55:18;;;;;;;6.75;2.15;;;26.00;52.60;;;;;;5096678;28;21932;-71
2021/03/30 00:57:46;;;;;;;10.68;2.08;;;26.70;53.50;;;;;;5098216;28;20032;-71
2021/03/30 01:00:17;;;;;;;8.93;2.10;;;27.50;54.20;;;;;;5098517;28;20019;-69
2021/03/30 01:02:44;;;;;;;9.77;2.20;;;27.30;48.80;;;;;;5095425;27;20134;-71
2021/03/30 01:05:13;;;;;;;9.82;2.58;;;26.90;48.50;;;;;;5100366;28;20034;-69
2021/03/30 01:08:19;;;;;;;8.30;2.75;;;26.80;50.10;;;;;;5100748;28;20035;-69
2021/03/30 01:11:17;;;;;;;12.57;2.47;;;26.40;51.00;;;;;;5101086;28;20031;-72
2021/03/30 01:13:59;;;;;;;8.27;1.65;;;26.10;51.60;;;;;;5097313;28;20444;-71
2021/03/30 01:17:02;;;;;;;10.60;3.75;;;25.80;53.90;;;;;;5096508;28;20055;-68
2021/03/30 01:19:53;;;;;;;10.07;1.92;;;25.80;51.40;;;;;;5080424;28;20035;-71
2021/03/30 01:22:56;;;;;;;8.00;1.65;;;25.70;51.70;;;;;;5097246;27;20125;-70
2021/03/30 01:25:26;;;;;;;10.25;1.85;;;25.80;50.10;;;;;;5093005;28;20039;-70
2021/03/30 01:28:33;;;;;;;9.82;2.90;;;25.70;50.90;;;;;;5106639;28;20039;-71
2021/03/30 01:31:02;;;;;;;8.52;2.17;;;25.40;52.00;;;;;;5074084;28;20060;-69
2021/03/30 01:33:33;;;;;;;8.85;1.70;;;25.40;50.90;;;;;;5085365;28;20032;-70
2021/03/30 01:36:02;;;;;;;6.57;1.95;;;25.30;50.90;;;;;;5086221;28;20027;-71
2021/03/30 01:38:30;;;;;;;6.07;1.67;;;25.40;50.40;;;;;;5085272;28;20039;-69
2021/03/30 01:40:59;;;;;;;5.15;1.42;;;25.40;51.00;;;;;;5084509;28;20032;-70
2021/03/30 01:43:27;;;;;;;7.75;2.30;;;25.50;52.50;;;;;;5090800;28;20080;-67
2021/03/30 01:45:56;;;;;;;7.30;1.90;;;25.10;51.30;;;;;;5083531;28;20061;-68
2021/03/30 01:48:25;;;;;;;8.30;1.60;;;26.00;52.10;;;;;;5090795;28;20036;-70
2021/03/30 01:50:54;;;;;;;3.80;1.50;;;27.10;48.10;;;;;;5092244;28;20023;-68
2021/03/30 01:53:24;;;;;;;5.45;1.17;;;27.70;49.10;;;;;;5091956;28;20028;-68
2021/03/30 01:55:54;;;;;;;6.43;1.58;;;28.40;49.50;;;;;;5088383;28;20424;-70
2021/03/30 01:58:23;;;;;;;6.88;1.67;;;27.40;47.10;;;;;;5083129;28;20036;-72
2021/03/30 02:00:55;;;;;;;5.25;1.40;;;26.80;49.30;;;;;;5091296;28;20046;-72
2021/03/30 02:03:23;;;;;;;6.95;1.40;;;27.40;49.50;;;;;;5090023;28;20490;-71
2021/03/30 02:05:52;;;;;;;8.32;1.50;;;27.30;48.20;;;;;;5072015;28;20109;-69
2021/03/30 02:08:21;;;;;;;8.95;1.80;;;27.20;47.50;;;;;;5084600;28;20127;-70
2021/03/30 02:10:51;;;;;;;8.05;1.67;;;27.10;48.40;;;;;;5089082;28;20111;-71
2021/03/30 02:13:27;;;;;;;8.60;2.65;;;26.60;49.20;;;;;;5088967;28;20024;-68
2021/03/30 02:16:14;;;;;;;5.38;1.10;;;25.90;53.00;;;;;;5090026;28;20178;-74
2021/03/30 02:19:07;;;;;;;6.63;1.60;;;25.40;53.70;;;;;;5080242;28;20036;-71
2021/03/30 02:21:42;;;;;;;7.78;1.48;;;25.70;51.80;;;;;;5087631;28;20032;-74
2021/03/30 02:24:13;;;;;;;5.07;1.50;;;26.60;52.70;;;;;;5079841;28;20116;-73
2021/03/30 02:26:43;;;;;;;6.18;1.40;;;27.40;46.60;;;;;;5078727;28;20540;-74
2021/03/30 02:29:15;;;;;;;6.82;2.22;;;27.50;49.50;;;;;;5094310;28;20046;-73
2021/03/30 02:31:44;;;;;;;6.20;1.60;;;27.10;48.00;;;;;;5099160;28;20027;-73
2021/03/30 02:34:14;;;;;;;6.10;1.23;;;27.00;50.50;;;;;;5110449;28;20031;-74
2021/03/30 02:36:43;;;;;;;8.20;2.50;;;27.30;46.80;;;;;;5107582;27;20023;-70
2021/03/30 02:39:12;;;;;;;7.63;1.63;;;27.60;48.50;;;;;;5108674;28;20077;-72
2021/03/30 02:41:43;;;;;;;7.65;2.13;;;28.20;48.50;;;;;;5110796;28;20326;-72
2021/03/30 02:44:13;;;;;;;5.30;1.83;;;27.80;45.30;;;;;;5107919;28;20035;-73
2021/03/30 02:46:42;;;;;;;6.75;1.67;;;27.80;47.10;;;;;;5102355;27;20100;-75
2021/03/30 02:49:14;;;;;;;4.55;1.20;;;28.40;47.50;;;;;;5105498;28;20036;-73
2021/03/30 02:51:43;;;;;;;4.32;1.05;;;28.80;43.00;;;;;;5110458;28;20034;-72
2021/03/30 02:54:11;;;;;;;6.43;1.30;;;29.70;45.20;;;;;;5106506;27;20448;-73
2021/03/30 02:56:39;;;;;;;5.45;1.30;;;30.30;44.50;;;;;;5110203;28;20742;-72
2021/03/30 02:59:07;;;;;;;9.55;2.67;;;29.50;41.50;;;;;;5105879;28;20088;-73
2021/03/30 03:01:36;;;;;;;6.78;1.67;;;29.20;44.40;;;;;;5093689;28;20051;-74
2021/03/30 03:04:04;;;;;;;5.70;1.35;;;29.70;43.30;;;;;;5104206;28;20020;-73
2021/03/30 03:06:33;;;;;;;3.55;1.65;;;29.90;45.50;;;;;;5107481;28;20054;-73
2021/03/30 03:09:00;;;;;;;7.30;1.60;;;29.80;45.00;;;;;;5106448;28;20063;-74
2021/03/30 03:11:29;;;;;;;7.68;1.42;;;28.80;44.10;;;;;;5110186;28;20047;-75
2021/03/30 03:13:58;;;;;;;7.15;2.03;;;28.00;44.80;;;;;;5101769;28;20054;-75
2021/03/30 03:16:27;;;;;;;5.88;1.20;;;27.60;46.20;;;;;;5109939;28;20046;-71
2021/03/30 03:18:55;;;;;;;7.55;2.55;;;28.30;45.40;;;;;;5101157;27;20038;-75
2021/03/30 03:21:24;;;;;;;4.43;1.40;;;29.00;42.80;;;;;;5105478;28;20024;-75
2021/03/30 03:23:52;;;;;;;5.10;1.55;;;29.90;42.60;;;;;;5106364;28;20027;-75
2021/03/30 03:26:20;;;;;;;3.17;1.67;;;28.90;42.40;;;;;;5101468;28;20019;-75
2021/03/30 03:28:48;;;;;;;3.22;1.17;;;28.00;43.70;;;;;;5104649;28;20031;-73
2021/03/30 03:31:16;;;;;;;6.18;1.27;;;27.30;44.50;;;;;;5080479;28;20458;-75
2021/03/30 03:33:43;;;;;;;7.88;2.10;;;27.90;46.10;;;;;;5103600;28;20028;-74
2021/03/30 03:36:13;;;;;;;7.22;1.10;;;28.50;44.30;;;;;;5109453;28;20016;-73
2021/03/30 03:38:44;;;;;;;6.43;1.10;;;28.00;41.60;;;;;;5105846;28;20030;-72
2021/03/30 03:41:14;;;;;;;3.95;1.00;;;27.20;46.60;;;;;;5106969;28;20365;-75
2021/03/30 03:43:44;;;;;;;2.00;1.30;;;26.80;44.60;;;;;;5108470;28;20098;-71
2021/03/30 03:46:20;;;;;;;3.65;1.02;;;26.50;46.10;;;;;;5105158;28;20162;-75
2021/03/30 03:48:47;;;;;;;5.70;0.85;;;26.10;45.50;;;;;;5102061;28;20043;-73
2021/03/30 03:51:16;;;;;;;5.03;1.25;;;25.80;47.00;;;;;;5106918;28;20093;-70
2021/03/30 03:53:45;;;;;;;3.47;1.15;;;25.70;47.20;;;;;;5107300;28;20031;-74
2021/03/30 03:56:16;;;;;;;5.40;1.23;;;25.60;47.00;;;;;;5089096;28;20031;-73
2021/03/30 03:58:52;;;;;;;4.32;0.95;;;26.30;46.40;;;;;;5105722;28;20481;-72
2021/03/30 04:01:31;;;;;;;3.33;1.25;;;26.20;46.90;;;;;;5099604;28;20089;-74
2021/03/30 04:04:05;;;;;;;4.00;1.08;;;26.10;47.70;;;;;;5100979;28;20451;-74
2021/03/30 04:06:42;;;;;;;3.15;0.77;;;26.50;47.50;;;;;;5108981;28;20028;-72
2021/03/30 04:09:12;;;;;;;6.60;1.35;;;26.40;45.60;;;;;;5107414;28;20856;-74
2021/03/30 04:11:41;;;;;;;5.35;1.50;;;26.20;46.90;;;;;;5107049;28;20453;-74
2021/03/30 04:14:09;;;;;;;6.78;1.00;;;26.30;47.10;;;;;;5108613;28;20028;-73
2021/03/30 04:16:36;;;;;;;3.35;1.08;;;26.50;47.10;;;;;;5107209;28;20023;-69
2021/03/30 04:19:09;;;;;;;4.30;1.25;;;26.30;48.70;;;;;;5108208;28;20102;-69
2021/03/30 04:21:37;;;;;;;3.05;1.58;;;25.60;50.00;;;;;;5106279;28;20031;-70
2021/03/30 04:24:07;;;;;;;5.05;1.58;;;25.40;49.20;;;;;;5106385;28;20016;-70
2021/03/30 04:26:37;;;;;;;5.47;1.88;;;25.60;49.20;;;;;;5107192;28;20491;-70
2021/03/30 04:29:05;;;;;;;3.88;1.45;;;25.90;49.90;;;;;;5107732;28;20048;-69
2021/03/30 04:31:33;;;;;;;6.13;1.35;;;26.20;47.60;;;;;;5107641;28;20469;-69
2021/03/30 04:34:01;;;;;;;8.50;1.98;;;26.70;47.00;;;;;;5091280;28;20118;-69
2021/03/30 04:36:29;;;;;;;6.82;1.65;;;27.00;46.50;;;;;;5105028;28;20325;-69
2021/03/30 04:38:56;;;;;;;6.45;1.60;;;27.30;47.50;;;;;;5110668;28;20026;-72
2021/03/30 04:41:24;;;;;;;5.13;1.50;;;27.30;46.20;;;;;;5104772;28;20184;-69
2021/03/30 04:43:51;;;;;;;5.30;1.80;;;26.70;47.10;;;;;;5111802;28;20073;-71
2021/03/30 04:46:20;;;;;;;6.10;1.60;;;26.00;47.40;;;;;;5108322;28;20465;-69
2021/03/30 04:48:47;;;;;;;7.55;1.45;;;25.40;48.20;;;;;;5097363;28;20190;-72
2021/03/30 04:51:15;;;;;;;5.90;1.30;;;25.50;48.90;;;;;;5106223;28;20043;-69
2021/03/30 04:53:43;;;;;;;4.88;1.10;;;25.80;51.20;;;;;;5109238;28;20572;-70
2021/03/30 04:56:10;;;;;;;3.20;1.40;;;26.10;48.70;;;;;;5104139;28;20446;-72
2021/03/30 04:58:38;;;;;;;5.43;1.40;;;26.00;48.10;;;;;;5104728;28;20558;-73
2021/03/30 05:01:05;;;;;;;5.80;1.63;;;25.50;48.50;;;;;;5108088;28;20059;-72
2021/03/30 05:03:34;;;;;;;3.90;0.85;;;25.20;49.60;;;;;;5102356;28;20020;-73
2021/03/30 05:06:05;;;;;;;7.10;1.55;;;24.90;50.10;;;;;;5101780;27;20023;-69
2021/03/30 05:08:32;;;;;;;2.97;1.10;;;25.30;50.60;;;;;;5080226;28;20063;-73
2021/03/30 05:11:00;;;;;;;2.75;0.88;;;25.70;48.60;;;;;;5107956;28;20861;-76
2021/03/30 05:13:27;;;;;;;3.63;1.30;;;25.90;47.10;;;;;;5083485;28;20069;-72
2021/03/30 05:15:55;;;;;;;6.55;1.50;;;26.00;46.50;;;;;;5111639;27;20035;-73
2021/03/30 05:18:22;;;;;;;6.75;1.60;;;26.20;45.40;;;;;;5103482;28;20040;-72
2021/03/30 05:20:49;;;;;;;4.32;2.08;;;26.40;46.10;;;;;;5110372;28;20034;-73
2021/03/30 05:23:17;;;;;;;5.90;1.38;;;26.40;46.10;;;;;;5105635;27;20031;-75
2021/03/30 05:25:44;;;;;;;5.07;1.35;;;26.20;46.50;;;;;;5112701;28;20373;-72
2021/03/30 05:28:11;;;;;;;3.60;1.10;;;26.20;47.40;;;;;;5106360;28;20047;-73
2021/03/30 05:30:39;;;;;;;7.75;1.98;;;25.90;47.80;;;;;;5105959;28;20052;-72
2021/03/30 05:33:07;;;;;;;4.57;1.17;;;25.60;48.50;;;;;;5106678;28;20076;-70
2021/03/30 05:35:34;;;;;;;4.80;1.27;;;25.30;50.70;;;;;;5086139;27;20043;-74
2021/03/30 05:38:02;;;;;;;8.32;1.92;;;25.30;50.20;;;;;;5110698;28;20028;-75
2021/03/30 05:40:29;;;;;;;6.03;1.40;;;25.30;49.80;;;;;;5102546;28;20024;-70
2021/03/30 05:42:57;;;;;;;9.23;1.75;;;25.30;50.00;;;;;;5109253;28;20027;-71
2021/03/30 05:45:24;;;;;;;5.03;1.50;;;25.10;50.50;;;;;;5109280;28;20493;-71
2021/03/30 05:47:54;;;;;;;5.75;1.33;;;25.00;49.40;;;;;;5106036;28;20019;-75
2021/03/30 05:50:23;;;;;;;13.10;1.45;;;25.00;48.90;;;;;;5087340;28;20043;-71
2021/03/30 05:52:53;;;;;;;5.75;2.22;;;24.90;49.40;;;;;;5112056;28;20423;-72
2021/03/30 05:55:31;;;;;;;4.57;1.40;;;24.80;50.60;;;;;;5102821;27;20016;-70
2021/03/30 05:58:00;;;;;;;5.85;1.45;;;24.80;50.60;;;;;;5105883;28;20034;-74
2021/03/30 06:00:31;;;;;;;6.40;1.60;;;24.70;49.80;;;;;;5106217;27;20016;-72
2021/03/30 06:03:03;;;;;;;5.57;1.02;;;24.60;49.00;;;;;;5092422;28;20123;-72
2021/03/30 06:05:32;;;;;;;6.65;1.27;;;24.40;48.50;;;;;;5107199;28;20031;-69
2021/03/30 06:08:01;;;;;;;7.43;1.85;;;24.30;49.00;;;;;;5111412;28;20043;-69
2021/03/30 06:10:31;;;;;;;5.40;1.05;;;24.30;49.10;;;;;;5109028;28;20101;-70
2021/03/30 06:12:59;;;;;;;5.65;1.25;;;24.30;47.60;;;;;;5095663;28;20402;-70
2021/03/30 06:15:32;;;;;;;3.03;0.90;;;24.20;49.20;;;;;;5111224;28;20098;-69
2021/03/30 06:18:01;;;;;;;8.13;1.40;;;24.10;49.20;;;;;;5102644;28;20110;-70
2021/03/30 06:20:36;;;;;;;4.07;1.13;;;24.10;48.80;;;;;;5111140;28;20035;-69
2021/03/30 06:23:07;;;;;;;6.65;1.67;;;24.00;49.00;;;;;;5106649;28;20065;-70
2021/03/30 06:25:44;;;;;;;9.88;1.80;;;24.10;50.00;;;;;;5088099;28;20084;-71
2021/03/30 06:28:19;;;;;;;2.50;1.10;;;24.30;50.20;;;;;;5100896;27;20105;-72
2021/03/30 06:31:10;;;;;;;6.68;1.40;;;24.40;49.60;;;;;;5108286;28;20158;-71
2021/03/30 06:34:06;;;;;;;6.93;1.08;;;24.30;48.80;;;;;;5101787;28;20028;-71
2021/03/30 06:36:34;;;;;;;4.85;1.00;;;24.10;48.90;;;;;;5090572;28;20096;-69
2021/03/30 06:39:10;;;;;;;3.30;0.82;;;23.90;47.20;;;;;;5103542;28;20386;-70
2021/03/30 06:44:27;;;;;;;3.85;1.00;;;23.70;50.10;;;;;;5105267;27;20489;-67
2021/03/30 06:46:54;;;;;;;4.07;1.00;;;23.80;49.40;;;;;;5104215;27;20039;-69
2021/03/30 06:49:23;;;;;;;5.65;1.10;;;23.80;49.60;;;;;;5105758;28;20028;-69
2021/03/30 06:51:51;;;;;;;6.28;1.30;;;23.70;49.50;;;;;;5107582;28;20043;-70
2021/03/30 06:54:19;;;;;;;2.83;1.10;;;23.60;50.00;;;;;;5103909;28;20049;-67
2021/03/30 06:56:53;;;;;;;6.45;2.40;;;23.60;50.20;;;;;;5104958;28;20020;-68
2021/03/30 06:59:21;;;;;;;5.63;2.28;;;23.50;50.60;;;;;;5104384;28;20032;-69
2021/03/30 07:01:55;;;;;;;6.43;2.25;;;23.20;50.70;;;;;;5105034;28;20019;-68
2021/03/30 07:04:23;;;;;;;5.43;1.10;;;23.10;50.80;;;;;;5096220;27;20042;-69
2021/03/30 07:06:54;;;;;;;5.93;1.05;;;23.00;51.40;;;;;;5110677;28;20031;-68
2021/03/30 07:09:22;;;;;;;5.82;1.67;;;22.90;50.70;;;;;;5104509;27;20046;-70
2021/03/30 07:11:51;;;;;;;5.72;1.95;;;22.90;51.30;;;;;;5102999;27;20108;-70
2021/03/30 07:14:18;;;;;;;7.05;1.70;;;22.90;50.70;;;;;;5099986;28;20019;-68
2021/03/30 07:16:55;;;;;;;4.28;1.00;;;22.90;50.50;;;;;;5109011;28;20103;-69
2021/03/30 07:19:25;;;;;;;6.00;1.10;;;22.80;50.50;;;;;;5082811;28;20035;-69
2021/03/30 07:22:09;;;;;;;3.78;0.65;;;22.60;50.50;;;;;;5097074;28;20046;-71
2021/03/30 07:25:06;;;;;;;3.13;0.73;;;22.50;50.70;;;;;;5105722;27;20024;-70
2021/03/30 07:27:45;;;;;;;2.95;1.25;;;22.30;51.20;;;;;;5105657;28;20197;-72
2021/03/30 07:30:14;;;;;;;6.05;1.05;;;22.40;51.20;;;;;;5096141;28;20085;-72
2021/03/30 07:33:03;;;;;;;4.13;1.00;;;22.40;50.70;;;;;;5099660;28;20039;-72
2021/03/30 07:35:33;;;;;;;2.72;0.85;;;22.30;51.20;;;;;;5100238;28;20473;-70
2021/03/30 07:38:07;;;;;;;4.68;0.95;;;22.10;51.50;;;;;;5099191;28;20083;-71
2021/03/30 07:40:37;;;;;;;2.80;0.60;;;22.00;51.50;;;;;;5098210;28;20027;-72
2021/03/30 07:43:07;;;;;;;4.90;1.00;;;21.80;51.90;;;;;;5100316;27;20485;-71
2021/03/30 07:45:39;;;;;;;6.75;1.10;;;21.80;52.40;;;;;;5097928;28;20122;-71
2021/03/30 07:48:10;;;;;;;4.82;1.10;;;21.80;52.60;;;;;;5102310;28;20559;-68
2021/03/30 07:51:02;;;;;;;4.88;1.17;;;21.70;53.10;;;;;;5092382;28;20042;-71
2021/03/30 07:53:53;;;;;;;6.45;1.00;;;21.70;53.60;;;;;;5096626;28;20032;-72
2021/03/30 07:56:29;;;;;;;5.68;1.13;;;21.70;53.70;;;;;;5104472;28;20039;-71
2021/03/30 07:58:56;;;;;;;;;;;21.60;54.30;;;;;;5100990;28;20385;-71
2021/03/30 08:01:26;;;;;;;4.57;0.90;;;21.50;54.90;;;;;;5103908;28;19914;-71
2021/03/30 08:03:55;;;;;;;4.80;1.00;;;21.40;56.90;;;;;;5092398;28;20054;-72
2021/03/30 08:06:32;;;;;;;7.80;1.50;;;21.20;56.90;;;;;;5095014;28;20359;-72
2021/03/30 08:09:00;;;;;;;13.63;2.08;;;21.00;57.50;;;;;;5095929;28;20153;-72
2021/03/30 08:11:43;;;;;;;4.50;1.27;;;20.90;58.30;;;;;;5082980;28;20027;-71
2021/03/30 08:14:36;;;;;;;9.27;1.80;;;20.80;59.00;;;;;;5100531;28;20034;-72
2021/03/30 08:17:16;;;;;;;10.85;1.52;;;20.70;59.70;;;;;;5100125;28;20465;-72
2021/03/30 08:19:54;;;;;;;6.20;1.40;;;20.80;59.70;;;;;;5093755;28;20058;-72
2021/03/30 08:22:22;;;;;;;12.07;1.55;;;20.80;60.00;;;;;;5099493;28;20035;-71
2021/03/30 08:24:49;;;;;;;10.23;3.55;;;20.60;60.60;;;;;;5102408;28;20024;-71
2021/03/30 08:27:35;;;;;;;15.10;5.72;;;20.40;61.10;;;;;;5099348;28;20484;-72
2021/03/30 08:30:13;;;;;;;6.70;2.45;;;20.30;62.20;;;;;;5097408;28;20063;-71
2021/03/30 08:32:47;;;;;;;7.53;2.08;;;20.10;63.30;;;;;;5095841;28;20054;-69
2021/03/30 08:35:35;;;;;;;7.18;2.13;;;20.10;64.00;;;;;;5099293;28;20406;-70
2021/03/30 08:38:03;;;;;;;6.65;1.20;;;20.00;64.50;;;;;;5098717;28;20031;-71
2021/03/30 08:40:36;;;;;;;9.65;1.70;;;19.90;65.40;;;;;;5096012;28;20079;-70
2021/03/30 08:43:16;;;;;;;5.90;1.67;;;19.90;65.60;;;;;;5097776;28;20032;-69
2021/03/30 08:46:01;;;;;;;4.57;1.90;;;20.00;66.20;;;;;;5097693;27;20032;-69
2021/03/30 08:48:37;;;;;;;9.23;1.90;;;19.90;66.70;;;;;;5099900;27;20309;-71
2021/03/30 08:51:05;;;;;;;;;;;19.80;67.00;;;;;;5104954;28;20447;-69
2021/03/30 08:53:37;;;;;;;6.10;1.98;;;19.80;67.50;;;;;;5108942;28;19938;-70
2021/03/30 08:56:11;;;;;;;8.65;1.70;;;19.80;67.60;;;;;;5109923;27;20054;-72
2021/03/30 08:58:45;;;;;;;6.57;2.10;;;19.70;68.50;;;;;;5111097;28;20108;-71
2021/03/30 09:01:12;;;;;;;13.55;3.08;;;19.60;69.20;;;;;;5110957;28;20349;-70
2021/03/30 09:03:41;;;;;;;7.10;2.05;;;19.60;69.70;;;;;;5103124;27;20144;-72
2021/03/30 09:06:34;;;;;;;10.02;2.10;;;19.50;69.00;;;;;;5105280;27;20058;-75
2021/03/30 09:09:23;;;;;;;10.07;1.92;;;19.30;70.20;;;;;;5103908;28;20141;-72
2021/03/30 09:11:53;;;;;;;7.00;1.58;;;19.20;71.20;;;;;;5104742;28;20039;-71
2021/03/30 09:14:22;;;;;;;10.32;1.98;;;19.10;71.50;;;;;;5104995;27;20111;-69
2021/03/30 09:16:51;;;;;;;6.63;2.00;;;19.10;72.00;;;;;;5109312;28;20080;-73
2021/03/30 09:19:27;;;;;;;9.40;1.35;;;18.90;72.60;;;;;;5101312;28;20035;-72
2021/03/30 09:22:03;;;;;;;9.18;3.35;;;18.90;73.30;;;;;;5102522;27;20020;-71
2021/03/30 09:27:06;;;;;;;7.97;2.10;;;18.80;74.20;;;;;;5096219;28;20055;-74
2021/03/30 09:29:36;;;;;;;8.13;1.40;;;18.70;74.50;;;;;;5094041;28;20090;-74
2021/03/30 09:32:10;;;;;;;6.43;1.80;;;18.70;74.80;;;;;;5097825;27;20099;-76
2021/03/30 09:34:42;;;;;;;5.55;1.65;;;18.60;75.00;;;;;;5101658;28;20027;-74
2021/03/30 09:37:09;;;;;;;8.00;2.13;;;18.50;75.10;;;;;;5097625;27;20062;-74
2021/03/30 09:39:38;;;;;;;5.90;1.50;;;18.50;75.40;;;;;;5099881;27;20036;-75
2021/03/30 09:42:06;;;;;;;8.13;2.22;;;18.50;75.70;;;;;;5098788;27;20055;-70
2021/03/30 09:44:42;;;;;;;17.08;3.58;;;18.40;75.60;;;;;;5100747;27;20024;-73
2021/03/30 09:47:15;;;;;;;10.18;3.10;;;18.40;75.40;;;;;;5106021;28;20127;-72
2021/03/30 09:49:43;;;;;;;13.75;2.75;;;18.40;75.10;;;;;;5101544;28;20054;-69
2021/03/30 09:52:11;;;;;;;7.38;1.58;;;18.30;75.40;;;;;;5105188;28;20021;-72
2021/03/30 09:54:43;;;;;;;15.15;2.08;;;18.30;75.40;;;;;;5103928;27;20110;-69
2021/03/30 09:57:22;;;;;;;17.13;2.53;;;18.30;75.50;;;;;;5108379;28;20035;-70
2021/03/30 09:59:53;;;;;;;4.03;1.42;;;18.30;75.80;;;;;;5102477;27;20028;-72
2021/03/30 10:02:32;;;;;;;8.15;2.13;;;18.20;76.00;;;;;;5107936;28;20036;-71
2021/03/30 10:05:05;;;;;;;8.00;2.15;;;18.20;76.00;;;;;;5116649;28;20059;-69
2021/03/30 10:07:38;;;;;;;9.63;2.45;;;18.20;76.60;;;;;;5109678;28;20089;-70
2021/03/30 10:10:13;;;;;;;9.45;2.10;;;18.10;76.70;;;;;;5101354;28;20046;-72
2021/03/30 10:12:58;;;;;;;10.95;2.15;;;18.10;77.20;;;;;;5107288;28;20036;-69
2021/03/30 10:15:41;;;;;;;11.13;2.92;;;18.00;77.40;;;;;;5077543;28;20027;-72
2021/03/30 10:18:12;;;;;;;6.35;2.60;;;18.00;77.90;;;;;;5099641;28;20087;-71
2021/03/30 10:20:48;;;;;;;8.98;2.58;;;17.90;78.20;;;;;;5097383;28;20020;-71
2021/03/30 10:23:30;;;;;;;7.68;1.85;;;17.90;78.50;;;;;;5098631;28;20034;-72
2021/03/30 10:25:57;;;;;;;8.45;2.53;;;17.80;79.00;;;;;;5095219;27;20028;-72
2021/03/30 10:28:30;;;;;;;9.63;2.10;;;17.80;79.00;;;;;;5096098;28;20036;-70
2021/03/30 10:31:15;;;;;;;6.65;1.60;;;17.70;79.40;;;;;;5098355;28;20036;-71
2021/03/30 10:33:48;;;;;;;7.28;2.00;;;17.70;79.50;;;;;;5096745;28;20092;-71
2021/03/30 10:36:26;;;;;;;7.75;1.98;;;17.70;79.70;;;;;;5094605;28;20031;-72
2021/03/30 10:39:09;;;;;;;6.38;2.28;;;17.70;79.60;;;;;;5077832;28;20047;-70
2021/03/30 10:41:44;;;;;;;11.50;2.65;;;17.60;80.30;;;;;;5096621;28;20107;-69
2021/03/30 10:44:22;;;;;;;11.25;2.35;;;17.60;79.80;;;;;;5095677;28;20015;-71
2021/03/30 10:46:52;;;;;;;8.48;1.55;;;17.60;80.10;;;;;;5095928;28;20481;-73
2021/03/30 10:49:21;;;;;;;9.85;2.28;;;17.60;80.00;;;;;;5101709;28;20044;-71
2021/03/30 10:51:52;;;;;;;7.57;2.40;;;17.40;80.40;;;;;;5096259;28;20114;-70
2021/03/30 10:54:24;;;;;;;9.55;2.30;;;17.40;80.90;;;;;;5096888;27;20019;-70
2021/03/30 10:56:51;;;;;;;6.85;1.83;;;17.30;81.20;;;;;;5096349;27;20319;-70
2021/03/30 10:59:18;;;;;;;8.85;2.08;;;17.20;81.40;;;;;;5097838;27;20012;-70
2021/03/30 11:01:46;;;;;;;11.73;2.08;;;17.20;81.80;;;;;;5095425;28;20063;-71
2021/03/30 11:04:13;;;;;;;8.18;2.28;;;17.10;82.10;;;;;;5098184;28;20030;-72
2021/03/30 11:06:45;;;;;;;24.33;6.13;;;17.10;82.50;;;;;;5096887;28;20490;-70
2021/03/30 11:09:13;;;;;;;15.65;4.97;;;17.00;82.80;;;;;;5077775;28;20105;-73
2021/03/30 11:11:41;;;;;;;15.10;2.97;;;16.90;83.20;;;;;;5099491;27;20047;-71
2021/03/30 11:14:09;;;;;;;22.02;3.85;;;16.80;83.40;;;;;;5107231;28;20393;-71
2021/03/30 11:16:36;;;;;;;15.57;3.72;;;16.80;83.80;;;;;;5108263;28;20062;-74
2021/03/30 11:19:06;;;;;;;15.48;3.13;;;16.70;84.10;;;;;;5102358;28;20043;-74
2021/03/30 11:21:33;;;;;;;11.93;2.70;;;16.70;84.30;;;;;;5106842;28;20051;-74
2021/03/30 11:24:03;;;;;;;9.15;3.97;;;16.60;84.40;;;;;;5108340;28;20466;-73
2021/03/30 11:26:36;;;;;;;13.20;2.53;;;16.60;84.80;;;;;;5102476;28;20035;-72
2021/03/30 11:29:05;;;;;;;11.10;2.67;;;16.70;84.90;;;;;;5101349;28;20060;-72
2021/03/30 11:34:17;;;;;;;14.52;3.67;;;16.60;85.20;;;;;;5108723;28;20570;-69
2021/03/30 11:36:46;;;;;;;14.18;3.30;;;16.60;85.00;;;;;;5102274;28;20052;-69
2021/03/30 11:39:13;;;;;;;12.63;3.10;;;16.60;85.30;;;;;;5105141;28;20035;-68
2021/03/30 11:41:41;;;;;;;11.77;3.65;;;16.50;85.40;;;;;;5109651;28;20103;-70
2021/03/30 11:44:10;;;;;;;13.95;3.80;;;16.50;85.40;;;;;;5103236;28;20802;-71
2021/03/30 11:46:37;;;;;;;14.73;3.28;;;16.60;85.70;;;;;;5105830;28;20056;-69
2021/03/30 11:49:05;;;;;;;6.43;2.35;;;16.50;85.70;;;;;;5109241;28;20031;-67
2021/03/30 11:51:32;;;;;;;13.30;2.38;;;16.50;85.90;;;;;;5109886;28;20031;-71
2021/03/30 11:54:00;;;;;;;9.68;2.55;;;16.40;85.60;;;;;;5105295;28;20024;-74
2021/03/30 11:56:28;;;;;;;9.27;3.28;;;16.40;85.90;;;;;;5106302;28;20063;-68
2021/03/30 11:58:55;;;;;;;9.05;2.45;;;16.40;85.90;;;;;;5108604;28;20119;-68
2021/03/30 12:01:23;;;;;;;12.52;1.58;;;16.40;85.80;;;;;;5103218;28;20118;-68
2021/03/30 12:03:57;;;;;;;8.52;2.42;;;16.40;85.90;;;;;;5096451;28;20028;-70
2021/03/30 12:06:24;;;;;;;7.28;2.13;;;16.30;86.10;;;;;;5105926;28;20034;-67
2021/03/30 12:08:52;;;;;;;9.02;2.03;;;16.30;86.40;;;;;;5088687;28;20050;-68
2021/03/30 12:11:19;;;;;;;11.50;2.45;;;16.30;86.50;;;;;;5112559;28;20129;-67
2021/03/30 12:13:46;;;;;;;13.70;2.33;;;16.20;86.60;;;;;;5108957;28;20039;-67
2021/03/30 12:16:17;;;;;;;15.63;2.95;;;16.20;86.50;;;;;;5109502;28;20028;-73
2021/03/30 12:18:46;;;;;;;12.25;2.50;;;16.20;86.60;;;;;;5101775;28;20036;-71
2021/03/30 12:21:14;;;;;;;8.68;2.17;;;16.10;86.70;;;;;;5112193;28;20055;-71
2021/03/30 12:23:42;;;;;;;8.75;1.92;;;16.10;86.80;;;;;;5110485;28;20500;-71
2021/03/30 12:26:09;;;;;;;9.90;3.10;;;16.10;86.80;;;;;;5105110;28;20459;-74
2021/03/30 12:28:36;;;;;;;7.20;2.45;;;16.00;86.80;;;;;;5110047;28;20122;-73
2021/03/30 12:31:04;;;;;;;9.18;2.63;;;16.00;86.80;;;;;;5086706;28;20123;-71
2021/03/30 12:33:31;;;;;;;7.43;1.98;;;16.00;86.80;;;;;;5113267;28;20145;-69
2021/03/30 12:35:59;;;;;;;9.15;2.03;;;16.00;86.60;;;;;;5109156;28;20050;-69
2021/03/30 12:38:26;;;;;;;5.97;1.88;;;16.00;86.80;;;;;;5113557;28;20035;-68
2021/03/30 12:40:57;;;;;;;10.43;2.50;;;16.00;86.40;;;;;;5098899;28;20107;-68
2021/03/30 12:43:24;;;;;;;16.42;3.60;;;16.10;86.30;;;;;;5119579;28;20100;-68
2021/03/30 12:45:52;;;;;;;6.63;2.28;;;16.00;86.30;;;;;;5117403;28;20038;-68
2021/03/30 12:48:20;;;;;;;10.75;2.05;;;16.00;86.30;;;;;;5121622;28;20054;-70
2021/03/30 12:50:49;;;;;;;9.25;1.55;;;16.00;86.50;;;;;;5119510;28;20020;-70
2021/03/30 12:53:16;;;;;;;7.50;2.03;;;16.00;86.60;;;;;;5109788;28;20496;-73
2021/03/30 12:55:49;;;;;;;9.02;1.95;;;15.90;86.90;;;;;;5110554;28;20035;-74
2021/03/30 12:58:17;;;;;;;5.18;1.38;;;16.00;86.90;;;;;;5110354;28;20400;-74
2021/03/30 13:00:46;;;;;;;8.18;1.90;;;16.00;86.70;;;;;;5111177;28;20020;-73
2021/03/30 13:03:14;;;;;;;7.85;1.88;;;15.90;86.90;;;;;;5104005;28;20032;-73
2021/03/30 13:05:42;;;;;;;8.90;2.05;;;15.80;87.10;;;;;;5112465;28;20038;-69
2021/03/30 13:08:10;;;;;;;8.38;1.83;;;15.70;87.40;;;;;;5110224;28;20050;-73
2021/03/30 13:10:37;;;;;;;8.05;2.75;;;15.70;87.80;;;;;;5111358;28;20396;-73
2021/03/30 13:13:05;;;;;;;8.05;2.38;;;15.70;87.80;;;;;;5107670;28;20051;-69
2021/03/30 13:15:32;;;;;;;6.07;1.95;;;15.50;88.90;;;;;;5112319;28;20051;-74